Time;durP1;ratioP1;P1;durP2;ratioP2;P2;SDS_P1;SDS_P2;PMS_P1;PMS_P2;Temp;Humidity;BMP_temperature;BMP_pressure;BME280_temperature;BME280_humidity;BME280_pressure;Samples;Min_cycle;Max_cycle;Signal;HPM_P1;HPM_P2
2022/04/28 00:02:08;;;;;;;1.43;1.30;;;;;;;;;;5072943;28;20234;-93
2022/04/28 00:04:38;;;;;;;1.20;1.10;;;;;;;;;;5072811;28;20231;-93
2022/04/28 00:07:08;;;;;;;2.57;1.67;;;;;;;;;;5073081;28;20688;-92
2022/04/28 00:09:39;;;;;;;1.60;1.43;;;;;;;;;;5073178;28;20199;-93
2022/04/28 00:12:08;;;;;;;1.60;1.37;;;;;;;;;;5073108;28;20282;-93
2022/04/28 00:14:35;;;;;;;2.13;1.27;;;;;;;;;;5072844;28;20203;-93
2022/04/28 00:17:10;;;;;;;1.90;1.70;;;;;;;;;;5073003;28;20227;-93
2022/04/28 00:19:38;;;;;;;1.40;1.30;;;;;;;;;;5072948;28;20929;-93
2022/04/28 00:22:08;;;;;;;3.80;1.30;;;;;;;;;;5073075;28;20720;-93
2022/04/28 00:24:36;;;;;;;2.90;1.17;;;;;;;;;;5072724;28;20207;-93
2022/04/28 00:27:09;;;;;;;2.00;1.20;;;;;;;;;;5073166;28;20280;-94
2022/04/28 00:29:46;;;;;;;2.37;1.50;;;;;;;;;;5072478;28;20205;-92
2022/04/28 00:32:15;;;;;;;1.83;1.43;;;;;;;;;;5073454;28;20664;-93
2022/04/28 00:34:48;;;;;;;2.83;1.30;;;;;;;;;;5072648;28;20668;-92
2022/04/28 00:37:17;;;;;;;1.50;1.40;;;;;;;;;;5072490;28;20311;-94
2022/04/28 00:39:44;;;;;;;1.53;1.43;;;;;;;;;;5073212;28;20568;-93
2022/04/28 00:42:13;;;;;;;4.27;1.20;;;;;;;;;;5073039;28;20223;-94
2022/04/28 00:44:40;;;;;;;3.17;1.60;;;;;;;;;;5072540;28;20203;-93
2022/04/28 00:47:08;;;;;;;1.60;1.30;;;;;;;;;;5072585;28;20221;-93
2022/04/28 00:52:29;;;;;;;2.23;1.40;;;;;;;;;;5073117;28;20653;-93
2022/04/28 00:55:10;;;;;;;1.73;1.60;;;;;;;;;;5072863;28;20650;-94
2022/04/28 00:57:37;;;;;;;1.50;1.40;;;;;;;;;;5076499;28;20730;-93
2022/04/28 01:00:12;;;;;;;1.50;1.40;;;;;;;;;;5076532;28;20201;-93
2022/04/28 01:02:39;;;;;;;3.60;1.90;;;;;;;;;;5076069;28;20221;-93
2022/04/28 01:05:09;;;;;;;2.03;1.63;;;;;;;;;;5076341;28;20721;-93
2022/04/28 01:07:37;;;;;;;3.67;1.63;;;;;;;;;;5076857;28;20193;-92
2022/04/28 01:10:14;;;;;;;1.23;1.20;;;;;;;;;;5076823;28;20295;-93
2022/04/28 01:12:50;;;;;;;1.50;1.40;;;;;;;;;;5076185;28;20207;-93
2022/04/28 01:15:18;;;;;;;2.33;1.30;;;;;;;;;;5075975;28;20215;-94
2022/04/28 01:17:45;;;;;;;1.57;1.47;;;;;;;;;;5077080;28;20230;-93
2022/04/28 01:20:17;;;;;;;2.90;1.50;;;;;;;;;;5076226;28;20639;-93
2022/04/28 01:22:45;;;;;;;1.50;1.40;;;;;;;;;;5075817;28;20221;-93
2022/04/28 01:25:43;;;;;;;2.00;1.70;;;;;;;;;;5076401;28;20722;-93
2022/04/28 01:28:20;;;;;;;1.70;1.60;;;;;;;;;;5076156;28;20202;-93
2022/04/28 01:30:47;;;;;;;3.77;1.60;;;;;;;;;;5075989;28;20662;-92
2022/04/28 01:33:14;;;;;;;1.57;1.40;;;;;;;;;;5076008;28;20213;-91
2022/04/28 01:35:42;;;;;;;2.40;1.50;;;;;;;;;;5076072;28;20717;-91
2022/04/28 01:38:17;;;;;;;2.07;1.37;;;;;;;;;;5076068;28;20253;-91
2022/04/28 01:40:53;;;;;;;1.60;1.37;;;;;;;;;;5076707;28;20230;-92
2022/04/28 01:43:23;;;;;;;3.00;1.70;;;;;;;;;;5076139;28;20221;-91
2022/04/28 01:45:50;;;;;;;1.80;1.70;;;;;;;;;;5075636;28;20217;-91
2022/04/28 01:48:21;;;;;;;2.27;1.80;;;;;;;;;;5075642;28;20200;-91
2022/04/28 01:56:22;;;;;;;2.03;1.60;;;;;;;;;;5075538;28;20243;-91
2022/04/28 01:58:50;;;;;;;3.00;1.53;;;;;;;;;;5075809;28;20201;-92
2022/04/28 02:01:17;;;;;;;1.90;1.80;;;;;;;;;;5075319;28;20196;-91
2022/04/28 02:03:44;;;;;;;2.90;1.60;;;;;;;;;;5075163;28;20248;-93
2022/04/28 02:06:12;;;;;;;1.53;1.40;;;;;;;;;;5075095;28;20284;-92
2022/04/28 02:08:50;;;;;;;2.13;1.60;;;;;;;;;;5075420;28;20362;-92
2022/04/28 02:11:24;;;;;;;4.63;2.10;;;;;;;;;;5075392;28;20213;-92
2022/04/28 02:13:54;;;;;;;1.80;1.70;;;;;;;;;;5074880;28;20200;-92
2022/04/28 02:16:28;;;;;;;1.90;1.70;;;;;;;;;;5074975;28;20255;-92
2022/04/28 02:18:55;;;;;;;1.50;1.40;;;;;;;;;;5075248;28;20197;-92
2022/04/28 02:21:23;;;;;;;2.87;1.97;;;;;;;;;;5074824;28;20280;-93
2022/04/28 02:23:52;;;;;;;1.93;1.70;;;;;;;;;;5074789;28;20271;-92
2022/04/28 02:26:22;;;;;;;2.77;1.60;;;;;;;;;;5074742;28;20193;-92
2022/04/28 02:28:49;;;;;;;1.53;1.43;;;;;;;;;;5075136;28;20207;-92
2022/04/28 02:31:26;;;;;;;2.20;2.00;;;;;;;;;;5074724;28;20193;-92
2022/04/28 02:33:53;;;;;;;1.90;1.80;;;;;;;;;;5074547;28;20200;-93
2022/04/28 02:36:20;;;;;;;2.83;1.67;;;;;;;;;;5074943;28;20204;-92
2022/04/28 02:38:58;;;;;;;1.63;1.53;;;;;;;;;;5074799;28;20233;-92
2022/04/28 02:41:29;;;;;;;1.83;1.73;;;;;;;;;;5074901;28;20189;-93
2022/04/28 02:43:56;;;;;;;3.40;1.93;;;;;;;;;;5075576;28;20228;-92
2022/04/28 02:46:24;;;;;;;2.80;1.80;;;;;;;;;;5074723;28;20213;-93
2022/04/28 02:48:52;;;;;;;1.70;1.60;;;;;;;;;;5074886;28;20207;-93
2022/04/28 02:51:19;;;;;;;4.57;1.87;;;;;;;;;;5074468;28;20193;-92
2022/04/28 02:54:03;;;;;;;3.03;2.57;;;;;;;;;;5074613;28;20217;-92
2022/04/28 02:56:31;;;;;;;1.80;1.50;;;;;;;;;;5074153;28;20204;-92
2022/04/28 02:58:58;;;;;;;5.07;1.80;;;;;;;;;;5074738;28;20197;-92
2022/04/28 03:01:26;;;;;;;2.03;1.93;;;;;;;;;;5074239;28;20197;-92
2022/04/28 03:03:56;;;;;;;5.13;2.50;;;;;;;;;;5073745;28;20225;-93
2022/04/28 03:12:00;;;;;;;3.37;2.57;;;;;;;;;;5075332;28;20551;-92
2022/04/28 03:14:37;;;;;;;2.20;1.93;;;;;;;;;;5074305;28;20224;-93
2022/04/28 03:17:10;;;;;;;2.60;1.60;;;;;;;;;;5073820;28;20219;-93
2022/04/28 03:19:40;;;;;;;8.50;2.47;;;;;;;;;;5073065;28;20280;-93
2022/04/28 03:22:11;;;;;;;2.30;2.13;;;;;;;;;;5073768;28;20203;-93
2022/04/28 03:24:40;;;;;;;3.67;1.80;;;;;;;;;;5073237;28;20228;-94
2022/04/28 03:27:07;;;;;;;2.23;2.03;;;;;;;;;;5073639;28;20288;-93
2022/04/28 03:29:40;;;;;;;3.80;2.37;;;;;;;;;;5073830;28;20193;-93
2022/04/28 03:32:11;;;;;;;2.30;2.10;;;;;;;;;;5074089;28;20193;-92
2022/04/28 03:34:38;;;;;;;2.30;2.07;;;;;;;;;;5073673;28;20197;-93
2022/04/28 03:37:05;;;;;;;5.60;2.33;;;;;;;;;;5073047;28;20296;-92
2022/04/28 03:39:43;;;;;;;4.60;2.00;;;;;;;;;;5073899;28;20189;-91
2022/04/28 03:42:27;;;;;;;2.70;1.90;;;;;;;;;;5073587;28;20201;-93
2022/04/28 03:45:01;;;;;;;1.90;1.80;;;;;;;;;;5073140;28;20254;-92
2022/04/28 03:47:33;;;;;;;4.73;1.60;;;;;;;;;;5073087;28;20220;-92
2022/04/28 03:50:00;;;;;;;1.90;1.80;;;;;;;;;;5073229;28;20327;-93
2022/04/28 03:52:30;;;;;;;4.23;1.93;;;;;;;;;;5073271;28;20235;-93
2022/04/28 03:55:03;;;;;;;14.33;2.67;;;;;;;;;;5073110;28;20193;-93
2022/04/28 03:57:30;;;;;;;2.33;1.67;;;;;;;;;;5073188;28;20591;-94
2022/04/28 03:59:57;;;;;;;4.97;2.40;;;;;;;;;;5072936;28;20283;-94
2022/04/28 04:02:31;;;;;;;4.67;2.10;;;;;;;;;;5073812;28;20250;-93
2022/04/28 04:04:58;;;;;;;3.13;2.13;;;;;;;;;;5072882;28;20288;-92
2022/04/28 04:07:32;;;;;;;1.90;1.80;;;;;;;;;;5073377;28;20201;-95
2022/04/28 04:09:59;;;;;;;2.10;1.90;;;;;;;;;;5073236;28;20601;-93
2022/04/28 04:12:34;;;;;;;3.93;2.60;;;;;;;;;;5072902;28;20193;-93
2022/04/28 04:15:01;;;;;;;7.07;3.03;;;;;;;;;;5072914;28;20225;-94
2022/04/28 04:17:29;;;;;;;7.60;3.13;;;;;;;;;;5073234;28;20213;-93
2022/04/28 04:19:56;;;;;;;8.23;2.60;;;;;;;;;;5073259;28;20684;-93
2022/04/28 04:22:26;;;;;;;3.03;2.07;;;;;;;;;;5072846;28;20220;-93
2022/04/28 04:25:04;;;;;;;5.13;2.07;;;;;;;;;;5072482;28;20240;-93
2022/04/28 04:27:31;;;;;;;3.90;2.27;;;;;;;;;;5073235;28;20269;-93
2022/04/28 04:32:17;;;;;;;2.30;2.10;;;;;;;;;;5074997;28;20223;-93
2022/04/28 04:32:59;;;;;;;2.90;2.40;;;;;;;;;;5076942;28;20190;-93
2022/04/28 04:35:32;;;;;;;7.13;2.50;;;;;;;;;;5077427;28;20278;-93
2022/04/28 04:38:02;;;;;;;4.53;3.37;;;;;;;;;;5076833;28;20286;-92
2022/04/28 04:40:32;;;;;;;3.33;2.37;;;;;;;;;;5076904;28;20196;-93
2022/04/28 04:43:00;;;;;;;2.77;2.57;;;;;;;;;;5076885;28;20190;-93
2022/04/28 04:45:29;;;;;;;4.57;3.33;;;;;;;;;;5076788;28;20717;-93
2022/04/28 04:48:08;;;;;;;3.47;2.90;;;;;;;;;;5076904;28;20201;-94
2022/04/28 04:50:42;;;;;;;2.93;2.73;;;;;;;;;;5076573;28;20231;-93
2022/04/28 04:53:12;;;;;;;6.43;2.83;;;;;;;;;;5076697;28;20258;-93
2022/04/28 04:55:52;;;;;;;2.53;2.30;;;;;;;;;;5076422;28;20246;-93
2022/04/28 04:58:23;;;;;;;2.53;2.20;;;;;;;;;;5076758;28;20193;-93
2022/04/28 05:00:52;;;;;;;4.43;2.13;;;;;;;;;;5076323;28;20201;-93
2022/04/28 05:03:28;;;;;;;2.23;1.80;;;;;;;;;;5076435;28;20244;-93
2022/04/28 05:05:56;;;;;;;3.57;2.30;;;;;;;;;;5076824;28;20197;-93
2022/04/28 05:08:23;;;;;;;2.20;1.90;;;;;;;;;;5076507;28;20193;-92
2022/04/28 05:10:51;;;;;;;4.60;3.23;;;;;;;;;;5076457;28;20229;-93
2022/04/28 05:13:21;;;;;;;6.67;3.10;;;;;;;;;;5076806;28;20208;-93
2022/04/28 05:15:51;;;;;;;3.70;2.93;;;;;;;;;;5076181;28;20225;-95
2022/04/28 05:18:21;;;;;;;4.30;2.57;;;;;;;;;;5076165;28;20248;-92
2022/04/28 05:20:50;;;;;;;24.90;14.50;;;;;;;;;;5076032;28;20199;-93
2022/04/28 05:23:20;;;;;;;11.63;8.03;;;;;;;;;;5075801;28;20232;-93
2022/04/28 05:25:50;;;;;;;6.67;3.60;;;;;;;;;;5076146;28;20233;-93
2022/04/28 05:28:21;;;;;;;4.80;3.73;;;;;;;;;;5075950;28;20227;-92
2022/04/28 05:30:49;;;;;;;3.03;2.83;;;;;;;;;;5076069;28;20628;-93
2022/04/28 05:33:18;;;;;;;4.20;2.77;;;;;;;;;;5076093;28;20211;-94
2022/04/28 05:35:45;;;;;;;5.10;2.50;;;;;;;;;;5076202;28;20201;-93
2022/04/28 05:38:21;;;;;;;2.93;2.20;;;;;;;;;;5075530;28;20282;-93
2022/04/28 05:40:49;;;;;;;2.50;2.30;;;;;;;;;;5074823;28;20583;-92
2022/04/28 05:46:04;;;;;;;3.80;2.67;;;;;;;;;;5076046;28;20230;-93
2022/04/28 05:48:34;;;;;;;3.43;2.57;;;;;;;;;;5075390;28;20201;-92
2022/04/28 05:51:12;;;;;;;5.77;2.63;;;;;;;;;;5075403;28;20201;-92
2022/04/28 05:53:48;;;;;;;3.63;2.43;;;;;;;;;;5075415;28;20189;-93
2022/04/28 05:56:25;;;;;;;5.30;2.80;;;;;;;;;;5075397;28;20193;-93
2022/04/28 05:59:11;;;;;;;8.67;3.63;;;;;;;;;;5075246;28;20258;-93
2022/04/28 06:01:39;;;;;;;6.90;5.60;;;;;;;;;;5075331;28;20746;-93
2022/04/28 06:04:14;;;;;;;4.77;4.20;;;;;;;;;;5075080;28;20224;-92
2022/04/28 06:06:41;;;;;;;7.33;3.07;;;;;;;;;;5075318;28;20286;-94
2022/04/28 06:09:09;;;;;;;4.37;3.07;;;;;;;;;;5075015;28;20201;-93
2022/04/28 06:11:36;;;;;;;5.47;2.20;;;;;;;;;;5075032;28;20203;-93
2022/04/28 06:14:17;;;;;;;2.70;2.33;;;;;;;;;;5075055;28;20654;-94
2022/04/28 06:16:44;;;;;;;7.10;3.60;;;;;;;;;;5074930;28;20192;-93
2022/04/28 06:19:13;;;;;;;4.00;3.13;;;;;;;;;;5074891;28;20209;-93
2022/04/28 06:21:40;;;;;;;2.87;2.50;;;;;;;;;;5074880;28;20223;-93
2022/04/28 06:24:11;;;;;;;6.37;2.57;;;;;;;;;;5074614;28;20216;-93
2022/04/28 06:26:38;;;;;;;3.40;3.10;;;;;;;;;;5074781;28;20201;-93
2022/04/28 06:29:05;;;;;;;4.30;2.80;;;;;;;;;;5074863;28;20324;-93
2022/04/28 06:31:34;;;;;;;9.40;2.57;;;;;;;;;;5074893;28;20207;-93
2022/04/28 06:34:01;;;;;;;3.03;2.43;;;;;;;;;;5074921;28;20765;-93
2022/04/28 06:36:30;;;;;;;6.73;2.53;;;;;;;;;;5076739;28;20242;-94
2022/04/28 06:39:24;;;;;;;2.90;2.17;;;;;;;;;;5074224;28;20248;-94
2022/04/28 06:41:54;;;;;;;2.97;2.67;;;;;;;;;;5074969;28;20225;-94
2022/04/28 06:44:21;;;;;;;4.63;2.90;;;;;;;;;;5074629;28;20689;-93
2022/04/28 06:46:49;;;;;;;3.80;2.50;;;;;;;;;;5074368;28;20599;-94
2022/04/28 06:49:16;;;;;;;3.63;2.50;;;;;;;;;;5233659;22;20319;-92
2022/04/28 06:51:45;;;;;;;2.80;2.20;;;;;;;;;;5094948;28;20658;-92
2022/04/28 06:54:21;;;;;;;2.97;2.23;;;;;;;;;;5095143;28;20245;-93
2022/04/28 06:56:51;;;;;;;2.47;2.20;;;;;;;;;;5095070;28;20195;-92
2022/04/28 06:59:27;;;;;;;3.10;2.33;;;;;;;;;;5095013;28;20763;-92
2022/04/28 07:01:55;;;;;;;3.03;2.57;;;;;;;;;;5094382;28;20196;-92
2022/04/28 07:04:25;;;;;;;2.70;2.10;;;;;;;;;;5094213;28;20225;-92
2022/04/28 07:06:54;;;;;;;8.63;1.93;;;;;;;;;;5094930;28;20279;-93
2022/04/28 07:09:27;;;;;;;4.13;3.03;;;;;;;;;;5094209;28;20280;-92
2022/04/28 07:11:57;;;;;;;2.97;2.30;;;;;;;;;;5094224;28;20281;-92
2022/04/28 07:14:27;;;;;;;3.27;2.53;;;;;;;;;;5094340;28;20244;-93
2022/04/28 07:17:10;;;;;;;3.87;1.87;;;;;;;;;;5093862;28;20198;-93
2022/04/28 07:19:40;;;;;;;3.87;2.60;;;;;;;;;;5094074;28;20282;-93
2022/04/28 07:22:09;;;;;;;3.33;2.30;;;;;;;;;;5094604;28;20227;-93
2022/04/28 07:24:36;;;;;;;3.27;2.97;;;;;;;;;;5094734;28;20314;-93
2022/04/28 07:27:06;;;;;;;3.57;2.80;;;;;;;;;;5094099;28;20199;-93
2022/04/28 07:29:40;;;;;;;5.27;2.93;;;;;;;;;;5093632;28;20195;-93
2022/04/28 07:32:08;;;;;;;5.83;2.90;;;;;;;;;;5093954;28;20219;-92
2022/04/28 07:34:38;;;;;;;7.47;3.73;;;;;;;;;;5093561;28;20199;-92
2022/04/28 07:37:06;;;;;;;9.17;3.87;;;;;;;;;;5094005;28;20223;-92
2022/04/28 07:39:35;;;;;;;7.70;4.03;;;;;;;;;;5093814;28;20202;-93
2022/04/28 07:42:02;;;;;;;4.33;2.97;;;;;;;;;;5093991;28;20723;-92
2022/04/28 07:44:29;;;;;;;6.83;3.57;;;;;;;;;;5093621;28;20216;-92
2022/04/28 07:46:57;;;;;;;7.03;3.00;;;;;;;;;;5094486;28;20199;-92
2022/04/28 07:49:24;;;;;;;7.40;4.30;;;;;;;;;;5093317;28;20228;-93
2022/04/28 07:51:51;;;;;;;5.73;3.37;;;;;;;;;;5093738;28;20203;-93
2022/04/28 07:54:31;;;;;;;7.27;3.93;;;;;;;;;;5093554;28;20284;-92
2022/04/28 07:57:28;;;;;;;4.97;4.50;;;;;;;;;;5093390;28;20230;-94
2022/04/28 08:00:05;;;;;;;6.00;3.93;;;;;;;;;;5093434;28;20200;-93
2022/04/28 08:02:36;;;;;;;6.80;4.10;;;;;;;;;;5093453;28;20290;-92
2022/04/28 08:05:05;;;;;;;5.03;4.23;;;;;;;;;;5092680;28;20223;-93
2022/04/28 08:07:47;;;;;;;7.83;5.43;;;;;;;;;;5093238;28;20200;-92
2022/04/28 08:10:14;;;;;;;7.97;4.97;;;;;;;;;;5093215;28;20668;-94
2022/04/28 08:12:43;;;;;;;6.17;4.10;;;;;;;;;;5093342;28;20223;-93
2022/04/28 08:15:11;;;;;;;5.13;4.63;;;;;;;;;;5093339;28;20737;-93
2022/04/28 08:17:41;;;;;;;5.27;4.73;;;;;;;;;;5093399;28;20192;-93
2022/04/28 08:20:10;;;;;;;4.80;4.07;;;;;;;;;;5093083;28;20624;-93
2022/04/28 08:22:43;;;;;;;8.73;4.27;;;;;;;;;;5093157;28;20196;-93
2022/04/28 08:25:14;;;;;;;4.40;4.00;;;;;;;;;;5092910;28;20215;-92
2022/04/28 08:27:41;;;;;;;11.33;4.63;;;;;;;;;;5093364;28;20199;-93
2022/04/28 08:30:16;;;;;;;4.87;4.37;;;;;;;;;;5092815;28;20199;-93
2022/04/28 08:32:44;;;;;;;4.93;4.50;;;;;;;;;;5093157;28;20629;-93
2022/04/28 08:35:30;;;;;;;6.73;5.07;;;;;;;;;;5092934;28;20266;-92
2022/04/28 08:38:04;;;;;;;4.20;3.80;;;;;;;;;;5092854;28;20200;-93
2022/04/28 08:40:31;;;;;;;4.33;3.97;;;;;;;;;;5092978;28;20212;-92
2022/04/28 08:43:06;;;;;;;4.73;4.30;;;;;;;;;;5093201;28;20199;-93
2022/04/28 08:46:50;;;;;;;7.07;4.30;;;;;;;;;;5092689;28;20656;-93
2022/04/28 08:48:31;;;;;;;4.20;3.80;;;;;;;;;;5091627;28;20196;-93
2022/04/28 08:51:00;;;;;;;5.70;4.00;;;;;;;;;;5092890;28;20200;-93
2022/04/28 08:53:36;;;;;;;5.73;4.20;;;;;;;;;;5092535;28;20205;-93
2022/04/28 08:56:03;;;;;;;7.33;3.67;;;;;;;;;;5092818;28;20216;-92
2022/04/28 08:58:38;;;;;;;5.17;3.90;;;;;;;;;;5092794;28;20208;-93
2022/04/28 09:01:06;;;;;;;4.00;3.53;;;;;;;;;;5092690;28;20203;-92
2022/04/28 09:03:34;;;;;;;4.60;3.67;;;;;;;;;;5092648;28;20283;-92
2022/04/28 09:06:21;;;;;;;6.87;3.70;;;;;;;;;;5092418;28;20247;-94
2022/04/28 09:08:55;;;;;;;3.70;3.40;;;;;;;;;;5092812;28;20194;-92
2022/04/28 09:11:24;;;;;;;5.77;4.03;;;;;;;;;;5092687;28;20200;-92
2022/04/28 09:16:46;;;;;;;3.87;3.47;;;;;;;;;;5094497;28;20180;-93
2022/04/28 09:19:16;;;;;;;3.00;2.80;;;;;;;;;;5097117;28;20256;-92
2022/04/28 09:21:43;;;;;;;4.80;3.70;;;;;;;;;;5096238;28;20256;-93
2022/04/28 09:24:26;;;;;;;5.10;4.17;;;;;;;;;;5096051;28;20673;-93
2022/04/28 09:27:00;;;;;;;5.40;3.60;;;;;;;;;;5096198;28;20230;-93
2022/04/28 09:29:30;;;;;;;5.47;3.77;;;;;;;;;;5096364;28;20205;-93
2022/04/28 09:31:58;;;;;;;9.30;4.10;;;;;;;;;;5096336;28;20203;-94
2022/04/28 09:34:32;;;;;;;4.80;4.20;;;;;;;;;;5096717;28;20219;-94
2022/04/28 09:37:01;;;;;;;4.33;3.93;;;;;;;;;;5096067;28;20196;-93
2022/04/28 09:42:39;;;;;;;5.57;3.70;;;;;;;;;;5096068;28;20191;-93
2022/04/28 09:45:13;;;;;;;4.33;3.93;;;;;;;;;;5095767;28;20227;-93
2022/04/28 09:47:49;;;;;;;4.40;4.00;;;;;;;;;;5095881;28;20656;-94
2022/04/28 09:50:18;;;;;;;7.10;4.20;;;;;;;;;;5094853;28;20231;-92
2022/04/28 09:52:55;;;;;;;5.80;4.30;;;;;;;;;;5095803;28;20287;-92
2022/04/28 09:55:24;;;;;;;9.37;4.00;;;;;;;;;;5095576;28;20196;-93
2022/04/28 09:58:06;;;;;;;4.33;3.10;;;;;;;;;;5095830;28;20206;-93
2022/04/28 10:00:36;;;;;;;3.80;3.03;;;;;;;;;;5095739;28;20206;-93
2022/04/28 10:03:11;;;;;;;4.50;3.97;;;;;;;;;;5095585;28;20245;-93
2022/04/28 10:05:38;;;;;;;5.60;3.30;;;;;;;;;;5096334;28;20272;-92
2022/04/28 10:08:10;;;;;;;3.73;3.40;;;;;;;;;;5095797;28;20200;-93
2022/04/28 10:10:37;;;;;;;5.63;3.90;;;;;;;;;;5095348;28;20220;-94
2022/04/28 10:13:08;;;;;;;3.60;3.30;;;;;;;;;;5095802;28;20231;-94
2022/04/28 10:15:37;;;;;;;5.93;4.37;;;;;;;;;;5094974;28;20279;-92
2022/04/28 10:18:10;;;;;;;4.70;4.00;;;;;;;;;;5095192;28;20188;-92
2022/04/28 10:20:43;;;;;;;12.13;4.87;;;;;;;;;;5095021;28;20219;-92
2022/04/28 10:23:13;;;;;;;5.60;3.90;;;;;;;;;;5095376;28;20200;-93
2022/04/28 10:34:18;;;;;;;5.53;3.80;;;;;;;;;;5095138;28;20178;-93
2022/04/28 10:36:53;;;;;;;4.23;3.53;;;;;;;;;;5094859;28;20200;-93
2022/04/28 10:39:40;;;;;;;5.20;3.33;;;;;;;;;;5095236;28;20196;-93
2022/04/28 10:42:45;;;;;;;5.00;3.77;;;;;;;;;;5094710;28;20233;-92
2022/04/28 10:45:22;;;;;;;6.30;3.83;;;;;;;;;;5094661;28;20251;-93
2022/04/28 10:47:50;;;;;;;3.90;3.60;;;;;;;;;;5094816;28;20200;-93
2022/04/28 10:50:26;;;;;;;9.40;6.77;;;;;;;;;;5093900;28;20259;-92
2022/04/28 10:52:57;;;;;;;4.67;3.30;;;;;;;;;;5095026;28;20192;-93
2022/04/28 10:55:25;;;;;;;3.90;3.47;;;;;;;;;;5094580;28;20216;-92
2022/04/28 10:57:52;;;;;;;3.67;3.20;;;;;;;;;;5094392;28;20222;-93
2022/04/28 11:00:34;;;;;;;6.43;4.23;;;;;;;;;;5094526;28;20222;-92
2022/04/28 11:03:08;;;;;;;4.90;3.30;;;;;;;;;;5094443;28;20195;-92
2022/04/28 11:05:42;;;;;;;3.47;3.10;;;;;;;;;;5093760;28;20246;-92
2022/04/28 11:08:26;;;;;;;3.87;3.53;;;;;;;;;;5094271;28;20196;-92
2022/04/28 11:11:13;;;;;;;3.20;2.90;;;;;;;;;;5094252;28;20576;-92
2022/04/28 11:13:56;;;;;;;3.27;3.03;;;;;;;;;;5094343;28;20200;-92
2022/04/28 11:16:23;;;;;;;5.60;3.30;;;;;;;;;;5094322;28;20253;-92
2022/04/28 11:18:54;;;;;;;4.53;3.20;;;;;;;;;;5094125;28;20200;-92
2022/04/28 11:21:24;;;;;;;3.60;2.90;;;;;;;;;;5094061;28;20249;-92
2022/04/28 11:23:58;;;;;;;3.70;3.37;;;;;;;;;;5094222;28;20293;-92
2022/04/28 11:26:29;;;;;;;3.00;2.73;;;;;;;;;;5093717;28;20289;-93
2022/04/28 11:28:56;;;;;;;3.73;2.87;;;;;;;;;;5093909;28;20202;-93
2022/04/28 11:31:26;;;;;;;4.13;2.80;;;;;;;;;;5093805;28;20279;-93
2022/04/28 11:33:56;;;;;;;2.67;2.47;;;;;;;;;;5093789;28;20219;-93
2022/04/28 11:36:28;;;;;;;3.60;3.30;;;;;;;;;;5093944;28;20196;-92
2022/04/28 11:38:59;;;;;;;3.40;2.53;;;;;;;;;;5093793;28;20632;-91
2022/04/28 11:41:33;;;;;;;3.67;2.47;;;;;;;;;;5093907;28;20287;-92
2022/04/28 11:44:07;;;;;;;4.43;2.97;;;;;;;;;;5093518;28;20200;-92
2022/04/28 11:46:36;;;;;;;3.23;2.37;;;;;;;;;;5093371;28;20220;-91
2022/04/28 11:49:03;;;;;;;5.97;2.80;;;;;;;;;;5093258;28;20200;-92
2022/04/28 11:51:35;;;;;;;2.70;2.50;;;;;;;;;;5093558;28;20212;-93
2022/04/28 11:54:06;;;;;;;5.17;2.30;;;;;;;;;;5093506;28;20233;-93
2022/04/28 11:56:35;;;;;;;4.60;2.80;;;;;;;;;;5093182;28;20680;-92
2022/04/28 11:59:05;;;;;;;4.10;2.93;;;;;;;;;;5093333;28;20278;-92
2022/04/28 12:01:35;;;;;;;2.97;2.70;;;;;;;;;;5093396;28;20275;-92
2022/04/28 12:04:21;;;;;;;2.97;2.60;;;;;;;;;;5093595;28;20606;-92
2022/04/28 12:07:00;;;;;;;4.53;3.13;;;;;;;;;;5093029;28;20230;-92
2022/04/28 12:14:57;;;;;;;6.60;2.70;;;;;;;;;;5093150;28;20176;-92
2022/04/28 12:20:11;;;;;;;4.83;2.90;;;;;;;;;;5093319;28;20184;-92
2022/04/28 12:22:41;;;;;;;4.57;2.87;;;;;;;;;;5093061;28;20217;-92
2022/04/28 12:25:13;;;;;;;2.83;2.10;;;;;;;;;;5093110;28;20200;-93
2022/04/28 12:27:46;;;;;;;3.00;2.53;;;;;;;;;;5093329;28;20223;-92
2022/04/28 12:30:21;;;;;;;4.77;1.97;;;;;;;;;;5093438;28;20203;-93
2022/04/28 12:32:55;;;;;;;3.17;2.03;;;;;;;;;;5093070;28;20648;-93
2022/04/28 12:35:34;;;;;;;2.90;2.00;;;;;;;;;;5092945;28;20279;-92
2022/04/28 12:38:06;;;;;;;2.93;2.60;;;;;;;;;;5092965;28;20262;-92
2022/04/28 12:40:43;;;;;;;3.30;2.73;;;;;;;;;;5092731;28;20618;-92
2022/04/28 12:43:36;;;;;;;3.33;2.20;;;;;;;;;;5092815;28;20279;-90
2022/04/28 12:46:05;;;;;;;3.27;2.80;;;;;;;;;;5092718;28;20219;-92
2022/04/28 12:48:55;;;;;;;2.00;1.90;;;;;;;;;;5092747;28;20239;-92
2022/04/28 12:51:27;;;;;;;3.50;2.37;;;;;;;;;;5095509;28;20180;-92
2022/04/28 12:54:10;;;;;;;2.47;2.27;;;;;;;;;;5097793;28;20691;-92
2022/04/28 12:56:38;;;;;;;4.70;2.27;;;;;;;;;;5097588;28;20534;-92
2022/04/28 12:59:07;;;;;;;2.50;2.30;;;;;;;;;;5096812;28;20554;-92
2022/04/28 13:01:34;;;;;;;3.43;2.23;;;;;;;;;;5096829;28;20199;-92
2022/04/28 13:04:04;;;;;;;2.20;2.00;;;;;;;;;;5096383;28;20275;-92
2022/04/28 13:06:36;;;;;;;3.40;2.03;;;;;;;;;;5096519;28;20281;-93
2022/04/28 13:09:07;;;;;;;3.60;2.00;;;;;;;;;;5096587;28;20279;-91
2022/04/28 13:11:36;;;;;;;3.10;2.40;;;;;;;;;;5096729;28;20631;-92
2022/04/28 13:14:10;;;;;;;8.83;2.90;;;;;;;;;;5096378;28;20204;-92
2022/04/28 13:16:44;;;;;;;2.07;1.97;;;;;;;;;;5096954;28;20569;-91
2022/04/28 13:19:12;;;;;;;4.03;2.10;;;;;;;;;;5096406;28;20199;-92
2022/04/28 13:21:42;;;;;;;2.80;2.57;;;;;;;;;;5096298;28;20212;-92
2022/04/28 13:24:11;;;;;;;2.60;2.27;;;;;;;;;;5096600;28;20231;-92
2022/04/28 13:26:41;;;;;;;4.67;2.20;;;;;;;;;;5096124;28;20222;-93
2022/04/28 13:29:12;;;;;;;2.10;1.90;;;;;;;;;;5096279;28;20212;-92
2022/04/28 13:31:42;;;;;;;3.20;2.20;;;;;;;;;;5096160;28;20537;-92
2022/04/28 13:34:12;;;;;;;3.80;2.00;;;;;;;;;;5095901;28;20544;-91
2022/04/28 13:36:40;;;;;;;2.20;2.00;;;;;;;;;;5095957;28;20579;-92
2022/04/28 13:39:12;;;;;;;3.50;2.00;;;;;;;;;;5095953;28;20219;-91
2022/04/28 13:41:41;;;;;;;2.03;1.93;;;;;;;;;;5096234;28;20676;-91
2022/04/28 13:44:10;;;;;;;2.50;2.30;;;;;;;;;;5096169;28;20223;-91
2022/04/28 13:46:38;;;;;;;3.90;2.20;;;;;;;;;;5095257;28;20219;-91
2022/04/28 13:49:08;;;;;;;3.50;2.30;;;;;;;;;;5096117;28;20661;-91
2022/04/28 13:51:35;;;;;;;2.33;1.73;;;;;;;;;;5096147;28;20212;-91
2022/04/28 13:54:02;;;;;;;2.20;2.00;;;;;;;;;;5096072;28;20683;-91
2022/04/28 13:56:43;;;;;;;2.63;2.07;;;;;;;;;;5095948;28;20741;-91
2022/04/28 13:59:12;;;;;;;3.20;2.10;;;;;;;;;;5095882;28;20199;-92
2022/04/28 14:01:42;;;;;;;2.50;2.17;;;;;;;;;;5095068;28;20259;-90
2022/04/28 14:04:09;;;;;;;4.93;2.40;;;;;;;;;;5095312;28;20196;-91
2022/04/28 14:06:42;;;;;;;4.93;2.20;;;;;;;;;;5095357;28;20216;-92
2022/04/28 14:09:10;;;;;;;2.10;1.90;;;;;;;;;;5095490;28;20202;-91
2022/04/28 14:11:37;;;;;;;2.20;1.90;;;;;;;;;;5095987;28;20645;-91
2022/04/28 14:14:06;;;;;;;3.50;1.87;;;;;;;;;;5095768;28;20218;-90
2022/04/28 14:16:34;;;;;;;2.60;2.40;;;;;;;;;;5095353;28;20207;-91
2022/04/28 14:19:10;;;;;;;1.87;1.70;;;;;;;;;;5095130;28;20197;-90
2022/04/28 14:21:38;;;;;;;2.00;1.80;;;;;;;;;;5095211;28;20199;-90
2022/04/28 14:24:07;;;;;;;1.90;1.63;;;;;;;;;;5095273;28;21058;-91
2022/04/28 14:26:34;;;;;;;1.90;1.70;;;;;;;;;;5095261;28;20220;-91
2022/04/28 14:29:10;;;;;;;2.97;1.90;;;;;;;;;;5095424;28;20208;-91
2022/04/28 14:31:37;;;;;;;2.63;1.90;;;;;;;;;;5095266;28;20200;-91
2022/04/28 14:34:10;;;;;;;2.00;1.90;;;;;;;;;;5095139;28;20279;-90
2022/04/28 14:36:41;;;;;;;2.47;2.17;;;;;;;;;;5095106;28;20286;-91
2022/04/28 14:39:11;;;;;;;2.70;2.17;;;;;;;;;;5095495;28;20682;-90
2022/04/28 14:41:38;;;;;;;1.93;1.70;;;;;;;;;;5094965;28;20235;-90
2022/04/28 14:44:15;;;;;;;3.33;2.00;;;;;;;;;;5094843;28;20200;-90
2022/04/28 14:46:45;;;;;;;3.03;2.27;;;;;;;;;;5095073;28;20244;-91
2022/04/28 14:52:22;;;;;;;3.20;2.20;;;;;;;;;;5095063;28;20676;-90
2022/04/28 14:54:54;;;;;;;2.30;2.10;;;;;;;;;;5094381;28;20541;-90
2022/04/28 14:57:23;;;;;;;3.37;1.80;;;;;;;;;;5094512;28;20203;-90
2022/04/28 14:59:51;;;;;;;2.33;2.07;;;;;;;;;;5095276;28;20641;-91
2022/04/28 15:02:22;;;;;;;3.70;2.00;;;;;;;;;;5094335;28;20206;-90
2022/04/28 15:04:50;;;;;;;8.87;2.37;;;;;;;;;;5094601;28;20284;-90
2022/04/28 15:07:20;;;;;;;5.90;2.37;;;;;;;;;;5094388;28;20314;-90
2022/04/28 15:09:48;;;;;;;3.50;2.13;;;;;;;;;;5094354;28;20285;-90
2022/04/28 15:12:22;;;;;;;4.70;2.40;;;;;;;;;;5093861;28;20195;-90
2022/04/28 15:14:53;;;;;;;2.63;2.20;;;;;;;;;;5093165;28;20192;-90
2022/04/28 15:17:21;;;;;;;2.93;2.00;;;;;;;;;;5094352;28;20687;-91
2022/04/28 15:19:51;;;;;;;4.47;3.20;;;;;;;;;;5094031;28;20202;-92
2022/04/28 15:22:21;;;;;;;5.60;3.10;;;;;;;;;;5094105;28;20208;-93
2022/04/28 15:24:51;;;;;;;2.63;2.20;;;;;;;;;;5094160;28;20198;-93
2022/04/28 15:27:22;;;;;;;2.83;2.63;;;;;;;;;;5094065;28;20690;-92
2022/04/28 15:29:56;;;;;;;3.40;2.57;;;;;;;;;;5094159;28;20224;-92
2022/04/28 15:32:24;;;;;;;3.83;2.63;;;;;;;;;;5093728;28;20200;-93
2022/04/28 15:34:51;;;;;;;5.63;2.63;;;;;;;;;;5093787;28;20188;-92
2022/04/28 15:37:24;;;;;;;2.93;2.50;;;;;;;;;;5094133;28;20614;-92
2022/04/28 15:39:51;;;;;;;3.23;2.70;;;;;;;;;;5093689;28;20223;-94
2022/04/28 15:42:20;;;;;;;2.60;2.40;;;;;;;;;;5093520;28;20231;-93
2022/04/28 15:44:53;;;;;;;5.10;2.83;;;;;;;;;;5093908;28;20223;-92
2022/04/28 15:47:22;;;;;;;4.33;2.47;;;;;;;;;;5093493;28;20227;-93
2022/04/28 15:49:55;;;;;;;4.00;3.57;;;;;;;;;;5093477;28;20305;-92
2022/04/28 15:52:29;;;;;;;2.90;2.70;;;;;;;;;;5093377;28;20275;-92